Time;durP1;ratioP1;P1;durP2;ratioP2;P2;SDS_P1;SDS_P2;PMS_P1;PMS_P2;Temp;Humidity;BMP_temperature;BMP_pressure;BME280_temperature;BME280_humidity;BME280_pressure;Samples;Min_cycle;Max_cycle;Signal;HPM_P1;HPM_P2
2022/01/03 00:00:07;;;;;;;22.30;5.35;;;;;;;9.48;81.84;101030.06;4996350;28;20024;-82
2022/01/03 00:02:33;;;;;;;19.65;4.25;;;;;;;9.44;82.08;101027.59;5021761;28;20040;-83
2022/01/03 00:04:58;;;;;;;23.27;5.07;;;;;;;9.41;82.17;101030.47;4997309;28;20392;-82
2022/01/03 00:07:26;;;;;;;21.08;5.00;;;;;;;9.38;82.32;101027.13;5010337;28;20037;-82
2022/01/03 00:09:52;;;;;;;27.70;5.28;;;;;;;9.36;82.96;101035.28;5011357;28;20099;-83
2022/01/03 00:12:20;;;;;;;20.63;4.45;;;;;;;9.34;82.93;101034.53;5004284;28;20029;-82
2022/01/03 00:14:48;;;;;;;21.65;5.35;;;;;;;9.34;82.35;101030.97;4993123;28;20021;-82
2022/01/03 00:17:13;;;;;;;22.98;6.13;;;;;;;9.33;82.70;101040.00;5025043;28;20061;-82
2022/01/03 00:19:39;;;;;;;22.33;4.40;;;;;;;9.33;82.12;101040.00;4994566;28;20484;-82
2022/01/03 00:22:07;;;;;;;24.90;5.70;;;;;;;9.34;82.45;101044.38;5002398;28;20038;-82
2022/01/03 00:24:36;;;;;;;19.95;5.25;;;;;;;9.33;82.29;101043.53;5001400;28;20463;-82
2022/01/03 00:27:04;;;;;;;21.52;4.47;;;;;;;9.33;82.48;101040.00;4984632;28;20025;-82
2022/01/03 00:29:41;;;;;;;23.55;4.25;;;;;;;9.35;82.14;101048.78;4992049;28;20413;-82
2022/01/03 00:32:09;;;;;;;26.35;5.70;;;;;;;9.38;82.24;101054.78;4993894;28;20431;-82
2022/01/03 00:34:36;;;;;;;28.00;6.43;;;;;;;9.40;82.20;101060.94;5019302;28;20371;-83
2022/01/03 00:37:01;;;;;;;28.30;5.03;;;;;;;9.43;81.77;101052.69;4997819;28;20500;-82
2022/01/03 00:39:27;;;;;;;24.17;5.30;;;;;;;9.45;81.25;101045.41;4992585;28;20026;-82
2022/01/03 00:41:52;;;;;;;26.23;5.72;;;;;;;9.50;81.09;101046.91;5010502;28;20540;-83
2022/01/03 00:44:18;;;;;;;20.02;5.30;;;;;;;9.51;80.96;101043.28;5010226;28;20095;-82
2022/01/03 00:46:45;;;;;;;20.48;5.15;;;;;;;9.50;80.74;101042.41;5010885;28;20088;-82
2022/01/03 00:49:11;;;;;;;32.20;6.90;;;;;;;9.48;81.52;101043.50;5013755;28;20104;-82
2022/01/03 00:51:36;;;;;;;24.25;5.68;;;;;;;9.45;80.89;101031.13;4991777;28;20113;-82
2022/01/03 00:54:02;;;;;;;23.20;5.20;;;;;;;9.45;80.41;101037.34;4992150;28;20032;-82
2022/01/03 00:56:29;;;;;;;25.05;5.53;;;;;;;9.48;80.20;101035.44;4992116;28;20037;-82
2022/01/03 00:59:02;;;;;;;23.23;5.18;;;;;;;9.50;80.10;101033.50;4992071;28;20026;-82
2022/01/03 01:01:28;;;;;;;22.83;6.03;;;;;;;9.52;80.30;101050.38;4998194;28;20031;-82
2022/01/03 01:03:55;;;;;;;24.25;6.07;;;;;;;9.52;79.67;101035.13;5003123;28;20025;-82
2022/01/03 01:06:23;;;;;;;21.15;6.28;;;;;;;9.50;80.74;101039.72;4991905;28;20047;-82
2022/01/03 01:08:55;;;;;;;27.52;5.65;;;;;;;9.49;80.58;101045.19;4988916;28;20140;-82
2022/01/03 01:11:25;;;;;;;21.02;5.57;;;;;;;9.48;80.79;101035.44;4989309;28;20057;-82
2022/01/03 01:13:51;;;;;;;23.55;5.65;;;;;;;9.48;80.68;101040.81;4996700;28;20026;-82
2022/01/03 01:16:17;;;;;;;27.55;6.38;;;;;;;9.47;80.81;101044.44;4988598;28;20049;-82
2022/01/03 01:18:44;;;;;;;21.75;5.85;;;;;;;9.45;80.81;101048.06;5007455;28;20029;-82
2022/01/03 01:21:10;;;;;;;30.55;6.05;;;;;;;9.45;81.15;101031.13;4989980;28;20037;-82
2022/01/03 01:23:37;;;;;;;21.00;5.68;;;;;;;9.45;80.96;101048.06;4995290;28;20055;-82
2022/01/03 01:28:47;;;;;;;25.48;5.85;;;;;;;9.42;81.36;101042.06;4992849;28;20525;-82
2022/01/03 01:31:18;;;;;;;21.58;5.38;;;;;;;9.41;81.40;101060.00;5001553;28;20120;-82
2022/01/03 01:33:45;;;;;;;25.55;5.90;;;;;;;9.41;81.06;101070.72;4993570;28;20463;-82
2022/01/03 01:36:11;;;;;;;21.77;5.53;;;;;;;9.39;81.40;101075.31;4991176;28;20116;-82
2022/01/03 01:38:39;;;;;;;24.52;5.88;;;;;;;9.37;81.73;101073.69;4994607;28;20111;-82
2022/01/03 01:41:07;;;;;;;26.83;6.00;;;;;;;9.36;81.49;101080.88;4990823;28;20026;-82
2022/01/03 01:43:40;;;;;;;28.20;5.82;;;;;;;9.35;81.43;101089.88;4990644;28;20470;-82
2022/01/03 01:46:11;;;;;;;24.63;5.97;;;;;;;9.35;81.66;101083.66;4992075;28;20030;-82
2022/01/03 01:48:38;;;;;;;25.48;5.90;;;;;;;9.31;81.69;101082.97;4991105;28;20482;-82
2022/01/03 01:51:06;;;;;;;24.70;6.18;;;;;;;9.28;81.71;101093.91;4993170;28;20420;-82
2022/01/03 01:53:41;;;;;;;23.30;5.53;;;;;;;9.23;81.85;101070.06;4998521;28;20037;-82
2022/01/03 01:56:19;;;;;;;22.48;5.85;;;;;;;9.18;81.57;101095.44;4990489;28;20030;-82
2022/01/03 01:59:12;;;;;;;24.25;6.07;;;;;;;9.15;82.15;101076.88;4987717;28;20037;-82
2022/01/03 02:01:46;;;;;;;19.33;4.47;;;;;;;9.09;82.22;101070.97;4986365;28;20046;-82
2022/01/03 02:04:31;;;;;;;26.75;5.65;;;;;;;9.05;82.18;101082.84;4996866;28;20041;-82
2022/01/03 02:07:20;;;;;;;20.27;5.53;;;;;;;9.01;82.78;101078.63;4989002;28;20121;-81
2022/01/03 02:10:09;;;;;;;25.02;5.25;;;;;;;8.99;83.09;101082.34;4934726;28;20113;-82
2022/01/03 02:12:37;;;;;;;21.35;4.20;;;;;;;8.95;82.71;101088.88;4990246;28;20030;-82
2022/01/03 02:15:08;;;;;;;24.38;5.40;;;;;;;8.93;82.83;101088.94;4990402;28;20125;-82
2022/01/03 02:17:33;;;;;;;21.73;4.63;;;;;;;8.89;82.86;101088.31;4990377;28;20030;-82
2022/01/03 02:20:13;;;;;;;23.13;5.78;;;;;;;8.83;83.59;101083.31;4989897;28;20076;-82
2022/01/03 02:22:40;;;;;;;22.40;5.75;;;;;;;8.83;83.17;101095.84;4992135;28;20041;-82
2022/01/03 02:25:08;;;;;;;19.38;4.93;;;;;;;8.80;83.60;101088.00;4993125;28;20021;-82
2022/01/03 02:27:34;;;;;;;26.98;5.53;;;;;;;8.76;83.80;101090.03;4988405;28;20026;-82
2022/01/03 02:30:00;;;;;;;24.90;5.28;;;;;;;8.73;83.61;101088.38;4989861;28;20030;-82
2022/01/03 02:32:26;;;;;;;26.42;5.30;;;;;;;8.72;83.69;101085.81;4993490;28;20057;-82
2022/01/03 02:34:52;;;;;;;24.20;5.70;;;;;;;8.70;83.66;101087.72;5001360;28;20069;-82
2022/01/03 02:37:17;;;;;;;22.67;4.65;;;;;;;8.71;84.08;101076.91;5000247;28;20425;-82
2022/01/03 02:39:43;;;;;;;26.73;5.10;;;;;;;8.72;83.57;101086.66;4988346;28;20080;-84
2022/01/03 02:42:08;;;;;;;24.40;5.03;;;;;;;8.74;83.56;101095.47;4999234;28;20061;-84
2022/01/03 02:44:34;;;;;;;22.02;5.20;;;;;;;8.78;83.92;101100.66;4990488;28;20025;-85
2022/01/03 02:47:00;;;;;;;26.02;4.78;;;;;;;8.80;83.62;101082.63;4987572;28;20030;-84
2022/01/03 02:49:25;;;;;;;25.13;4.85;;;;;;;8.82;83.43;101073.56;4993178;28;20026;-82
2022/01/03 02:51:50;;;;;;;22.33;4.75;;;;;;;8.85;83.38;101086.75;4988385;28;20109;-82
2022/01/03 02:54:15;;;;;;;22.80;5.57;;;;;;;8.85;83.22;101080.56;4998132;28;20037;-82
2022/01/03 02:56:44;;;;;;;26.58;4.85;;;;;;;8.82;83.24;101089.63;4993481;28;20544;-82
2022/01/03 02:59:15;;;;;;;27.17;5.93;;;;;;;8.79;83.50;101081.78;4994127;28;20104;-82
2022/01/03 03:01:45;;;;;;;22.35;4.68;;;;;;;8.77;83.42;101083.72;5002718;28;20038;-82
2022/01/03 03:04:11;;;;;;;27.25;5.82;;;;;;;8.75;83.84;101077.56;5004908;28;20623;-82
2022/01/03 03:06:36;;;;;;;19.80;4.88;;;;;;;8.72;84.08;101085.81;5002905;28;20025;-82
2022/01/03 03:09:07;;;;;;;23.52;5.32;;;;;;;8.69;84.14;101092.22;5010067;28;20049;-82
2022/01/03 03:11:34;;;;;;;25.83;5.38;;;;;;;8.71;83.93;101097.47;4995449;28;20116;-82
2022/01/03 03:13:59;;;;;;;23.75;5.85;;;;;;;8.72;84.05;101096.53;4991325;28;20462;-82
2022/01/03 03:16:25;;;;;;;26.08;5.60;;;;;;;8.71;84.11;101090.31;5002224;28;20167;-82
2022/01/03 03:18:51;;;;;;;24.08;4.53;;;;;;;8.71;84.46;101087.63;4994559;28;20041;-82
2022/01/03 03:21:16;;;;;;;24.30;5.68;;;;;;;8.77;83.94;101096.22;4991738;28;20041;-82
2022/01/03 03:23:41;;;;;;;26.58;5.22;;;;;;;8.80;84.04;101090.69;4992283;28;20030;-82
2022/01/03 03:26:08;;;;;;;24.35;5.20;;;;;;;8.82;83.85;101096.81;4992982;28;20076;-82
2022/01/03 03:28:33;;;;;;;26.90;5.57;;;;;;;8.84;83.67;101090.38;4973797;28;20030;-83
2022/01/03 03:30:59;;;;;;;26.88;5.18;;;;;;;8.89;83.74;101096.34;4999873;28;20045;-82
2022/01/03 03:33:24;;;;;;;21.38;4.93;;;;;;;8.90;84.11;101095.38;4997034;28;20024;-82
2022/01/03 03:35:51;;;;;;;27.92;5.97;;;;;;;8.96;84.00;101096.84;4991302;28;20140;-82
2022/01/03 03:38:17;;;;;;;18.98;4.80;;;;;;;8.99;83.76;101095.75;4998532;28;20107;-82
2022/01/03 03:40:45;;;;;;;24.38;5.70;;;;;;;9.01;83.74;101092.03;4992632;28;20097;-83
2022/01/03 03:43:12;;;;;;;25.02;4.97;;;;;;;9.02;83.71;101093.75;4991955;28;20030;-81
2022/01/03 03:45:37;;;;;;;27.25;5.38;;;;;;;9.02;83.83;101088.41;4992464;28;20030;-82
2022/01/03 03:48:03;;;;;;;21.52;5.13;;;;;;;9.00;83.47;101090.28;4991563;28;20521;-82
2022/01/03 03:50:28;;;;;;;21.30;5.20;;;;;;;8.96;83.97;101091.47;4994074;28;20143;-82
2022/01/03 03:52:53;;;;;;;26.77;5.88;;;;;;;8.94;84.15;101089.84;4991767;28;20430;-82
2022/01/03 03:55:19;;;;;;;17.48;4.75;;;;;;;8.89;84.13;101093.66;4997784;28;20034;-82
2022/01/03 03:57:44;;;;;;;26.63;5.30;;;;;;;8.87;84.03;101081.31;4995737;28;20022;-82
2022/01/03 04:00:15;;;;;;;26.60;5.20;;;;;;;8.83;83.81;101077.97;4995603;28;20030;-82
2022/01/03 04:02:40;;;;;;;26.23;5.63;;;;;;;8.81;84.04;101070.97;5001022;28;20117;-82
2022/01/03 04:05:06;;;;;;;37.00;6.43;;;;;;;8.80;84.04;101088.00;4997232;28;20440;-82
2022/01/03 04:07:31;;;;;;;27.35;5.75;;;;;;;8.83;84.52;101087.81;4991462;28;20026;-82
2022/01/03 04:09:56;;;;;;;20.60;4.55;;;;;;;8.85;83.97;101080.56;5013205;28;20121;-82
2022/01/03 04:12:22;;;;;;;30.23;5.93;;;;;;;8.89;84.06;101079.41;5015310;28;20026;-82
2022/01/03 04:14:47;;;;;;;26.33;5.70;;;;;;;8.92;83.58;101080.06;4993933;28;20037;-82
2022/01/03 04:17:14;;;;;;;23.20;5.60;;;;;;;8.96;83.90;101071.81;4996627;28;20493;-82
2022/01/03 04:19:39;;;;;;;27.45;5.20;;;;;;;8.98;84.09;101068.09;5002961;28;20415;-82
2022/01/03 04:22:04;;;;;;;27.08;4.68;;;;;;;8.99;83.28;101069.81;5018289;28;20041;-82
2022/01/03 04:24:30;;;;;;;28.95;4.88;;;;;;;8.98;83.52;101065.41;4992464;28;20022;-82
2022/01/03 04:26:55;;;;;;;27.17;6.65;;;;;;;8.98;83.83;101059.19;4996868;28;20551;-82
2022/01/03 04:29:21;;;;;;;22.45;5.60;;;;;;;8.96;83.76;101056.63;5011014;28;20025;-82
2022/01/03 04:31:46;;;;;;;22.60;4.95;;;;;;;8.98;84.29;101057.38;5003258;28;20497;-82
2022/01/03 04:34:13;;;;;;;25.58;6.32;;;;;;;8.99;83.23;101059.09;5001305;28;20037;-82
2022/01/03 04:36:38;;;;;;;29.38;6.25;;;;;;;9.00;83.53;101058.13;5010669;28;20541;-82
2022/01/03 04:39:04;;;;;;;33.58;6.75;;;;;;;9.03;83.18;101049.88;4988349;28;20112;-82
2022/01/03 04:41:29;;;;;;;22.40;5.90;;;;;;;9.06;83.36;101067.59;5019011;28;20405;-82
2022/01/03 04:43:55;;;;;;;23.90;6.20;;;;;;;9.09;83.80;101057.56;5019872;28;20108;-82
2022/01/03 04:46:20;;;;;;;29.75;6.53;;;;;;;9.09;83.70;101057.56;5011216;28;20072;-82
2022/01/03 04:48:45;;;;;;;24.90;5.72;;;;;;;9.11;83.29;101057.47;5011884;28;20032;-82
2022/01/03 04:51:11;;;;;;;27.08;6.00;;;;;;;9.14;83.16;101053.72;4994083;28;20080;-82
2022/01/03 04:53:39;;;;;;;24.95;5.35;;;;;;;9.14;83.56;101051.06;5011373;28;20113;-82
2022/01/03 04:56:06;;;;;;;22.52;4.68;;;;;;;9.16;83.17;101054.47;4997673;28;20024;-82
2022/01/03 04:58:32;;;;;;;23.10;5.07;;;;;;;9.17;83.15;101053.53;5011901;28;20026;-81
2022/01/03 05:00:57;;;;;;;25.40;5.63;;;;;;;9.17;83.13;101050.84;5000137;28;20045;-81
2022/01/03 05:03:22;;;;;;;28.63;5.97;;;;;;;9.17;83.33;101048.16;4992853;28;20036;-81
2022/01/03 05:05:47;;;;;;;28.88;5.72;;;;;;;9.20;82.60;101050.66;4992442;28;20092;-82
2022/01/03 05:08:13;;;;;;;25.60;5.53;;;;;;;9.19;83.04;101054.28;4993515;28;20509;-82
2022/01/03 05:10:38;;;;;;;28.73;6.00;;;;;;;9.18;83.40;101048.06;4995267;28;20034;-82
2022/01/03 05:13:03;;;;;;;24.85;5.20;;;;;;;9.20;83.37;101046.13;4991977;28;20072;-83
2022/01/03 05:15:29;;;;;;;25.77;6.25;;;;;;;9.21;83.00;101055.91;5009434;28;20120;-82
2022/01/03 05:17:54;;;;;;;27.98;5.85;;;;;;;9.21;83.05;101039.81;5019828;28;20037;-82
2022/01/03 05:20:20;;;;;;;23.83;5.47;;;;;;;9.18;82.78;101034.66;5009238;28;20045;-82
2022/01/03 05:22:45;;;;;;;22.20;4.97;;;;;;;9.15;83.30;101037.53;4991110;28;20046;-82
2022/01/03 05:25:10;;;;;;;25.17;5.80;;;;;;;9.12;83.05;101037.72;5009631;28;20034;-82
2022/01/03 05:27:37;;;;;;;21.27;4.78;;;;;;;9.09;83.21;101030.75;5024653;28;20389;-82
2022/01/03 05:30:04;;;;;;;21.83;5.03;;;;;;;9.10;83.13;101029.75;4973097;28;20127;-82
2022/01/03 05:32:29;;;;;;;24.95;5.53;;;;;;;9.10;83.41;101027.09;4985867;28;20350;-82
2022/01/03 05:34:55;;;;;;;27.52;5.50;;;;;;;9.12;83.03;101029.66;5000988;28;20025;-82
2022/01/03 05:37:20;;;;;;;26.48;5.25;;;;;;;9.15;83.03;101025.94;5007119;28;20026;-82
2022/01/03 05:39:45;;;;;;;26.02;5.43;;;;;;;9.16;83.05;101030.34;5009521;28;20690;-82
2022/01/03 05:42:10;;;;;;;24.90;5.40;;;;;;;9.13;82.86;101020.66;4995029;28;20033;-82
2022/01/03 05:44:36;;;;;;;32.05;6.22;;;;;;;9.11;82.85;101014.56;5009800;28;20038;-82
2022/01/03 05:47:01;;;;;;;29.52;5.25;;;;;;;9.08;82.99;101018.28;4989807;28;20394;-82
2022/01/03 05:49:26;;;;;;;21.88;3.83;;;;;;;9.10;82.97;101018.19;4996301;28;20022;-82
2022/01/03 05:51:51;;;;;;;24.25;5.07;;;;;;;9.13;82.72;101019.81;4991140;28;20144;-82
2022/01/03 05:54:17;;;;;;;24.95;5.20;;;;;;;9.13;83.19;101014.47;4994851;28;20538;-82
2022/01/03 05:56:42;;;;;;;18.52;4.10;;;;;;;9.08;83.14;101018.28;4991606;28;20029;-82
2022/01/03 05:59:08;;;;;;;23.52;4.60;;;;;;;9.05;83.06;101006.91;4995544;28;20405;-82
2022/01/03 06:01:34;;;;;;;25.50;5.25;;;;;;;8.99;83.32;101018.00;5010596;28;20029;-82
2022/01/03 06:04:11;;;;;;;23.60;5.40;;;;;;;8.98;83.61;101010.94;4995045;28;20441;-82
2022/01/03 06:06:53;;;;;;;19.83;5.05;;;;;;;8.94;84.04;101007.59;4991677;28;20092;-82
2022/01/03 06:09:19;;;;;;;17.48;4.03;;;;;;;8.96;84.00;101011.06;5010937;28;20045;-82
2022/01/03 06:11:44;;;;;;;23.75;4.38;;;;;;;8.96;84.08;101005.69;4996241;28;20044;-82
2022/01/03 06:14:09;;;;;;;23.50;5.32;;;;;;;8.97;84.30;101004.72;5007164;28;20093;-82
2022/01/03 06:16:34;;;;;;;20.60;4.82;;;;;;;8.96;84.27;101005.69;4993783;28;20038;-82
2022/01/03 06:19:00;;;;;;;20.38;4.32;;;;;;;8.93;84.33;100995.13;5009467;28;20442;-82
2022/01/03 06:21:25;;;;;;;20.65;5.05;;;;;;;8.92;84.23;100998.78;4994582;28;20033;-82
2022/01/03 06:23:50;;;;;;;23.27;4.65;;;;;;;8.87;84.61;100993.75;5022424;28;20028;-82
2022/01/03 06:26:16;;;;;;;19.83;4.20;;;;;;;8.83;85.11;101007.41;5003375;28;20054;-82
2022/01/03 06:28:41;;;;;;;16.13;3.88;;;;;;;8.80;85.12;101002.25;5000972;28;20029;-82
2022/01/03 06:31:06;;;;;;;22.95;4.50;;;;;;;8.77;84.90;101002.44;5006527;28;20060;-82
2022/01/03 06:33:32;;;;;;;20.17;4.15;;;;;;;8.73;84.87;101005.31;5005847;28;20411;-82
2022/01/03 06:35:57;;;;;;;19.70;3.70;;;;;;;8.75;85.15;101002.53;5021490;28;20040;-82
2022/01/03 06:38:22;;;;;;;21.10;4.43;;;;;;;8.78;85.63;101004.16;5015039;28;20025;-82
2022/01/03 06:40:47;;;;;;;24.83;4.55;;;;;;;8.80;85.96;101003.13;5014603;28;20093;-82
2022/01/03 06:43:13;;;;;;;24.35;5.10;;;;;;;8.81;86.97;101003.97;4999429;28;20087;-82
2022/01/03 06:45:38;;;;;;;20.48;3.92;;;;;;;8.78;87.49;100998.81;4997509;28;20131;-82
2022/01/03 06:48:04;;;;;;;24.27;4.80;;;;;;;8.77;87.86;101010.47;4997269;28;20022;-82
2022/01/03 06:50:30;;;;;;;23.30;5.22;;;;;;;8.74;88.62;101004.38;5014808;28;20502;-82
2022/01/03 06:52:56;;;;;;;19.80;3.80;;;;;;;8.73;88.93;101001.78;5001116;28;20025;-82
2022/01/03 06:55:21;;;;;;;22.58;5.05;;;;;;;8.70;89.67;100999.31;5029014;28;20021;-82
2022/01/03 06:57:47;;;;;;;25.65;5.13;;;;;;;8.69;89.80;101001.09;5031234;28;20052;-82
2022/01/03 07:00:13;;;;;;;23.45;4.97;;;;;;;8.69;89.55;101009.13;5005309;28;20025;-82
2022/01/03 07:02:42;;;;;;;20.70;4.07;;;;;;;8.66;89.96;101000.44;4995579;28;20491;-82
2022/01/03 07:05:11;;;;;;;23.63;5.25;;;;;;;8.64;90.26;100999.66;5016320;28;20022;-82
2022/01/03 07:07:37;;;;;;;22.45;4.85;;;;;;;8.62;90.17;100997.09;5033756;28;20108;-82
2022/01/03 07:10:03;;;;;;;24.45;4.60;;;;;;;8.62;90.15;101002.44;4999473;28;20201;-82
2022/01/03 07:12:28;;;;;;;19.75;4.00;;;;;;;8.60;90.16;100992.81;5013390;28;20030;-82
2022/01/03 07:20:06;;;;;;;20.52;4.53;;;;;;;8.61;89.81;100987.34;5015110;28;20052;-82
2022/01/03 07:22:36;;;;;;;20.47;4.43;;;;;;;8.61;89.81;100987.34;4994391;28;20097;-82
2022/01/03 07:25:02;;;;;;;21.38;3.97;;;;;;;8.62;89.10;100994.41;5018169;28;20036;-82
2022/01/03 07:27:28;;;;;;;18.55;4.32;;;;;;;8.61;89.41;100995.38;5015409;28;20034;-82
2022/01/03 07:29:54;;;;;;;20.50;4.43;;;;;;;8.59;89.19;100997.28;5013167;28;20022;-82
2022/01/03 07:32:19;;;;;;;20.23;3.70;;;;;;;8.54;89.02;100999.41;4983168;28;20137;-82
2022/01/03 07:34:45;;;;;;;19.05;3.70;;;;;;;8.51;88.87;100999.59;5020279;28;20033;-82
2022/01/03 07:37:10;;;;;;;18.50;4.65;;;;;;;8.48;88.89;100995.28;5016666;28;20494;-82
2022/01/03 07:39:36;;;;;;;18.80;3.92;;;;;;;8.48;89.11;101002.47;4995514;28;20057;-82
2022/01/03 07:42:03;;;;;;;15.68;3.97;;;;;;;8.48;89.30;100987.25;5011643;28;20108;-82
2022/01/03 07:44:28;;;;;;;18.90;4.20;;;;;;;8.49;89.27;100993.44;5012645;28;20048;-82
2022/01/03 07:46:54;;;;;;;17.45;4.50;;;;;;;8.51;88.94;100996.91;5011483;28;20343;-82
2022/01/03 07:49:20;;;;;;;19.08;4.20;;;;;;;8.55;88.69;100998.41;4994474;28;20030;-82
2022/01/03 07:51:46;;;;;;;21.70;4.47;;;;;;;8.59;88.95;101005.31;5011336;28;20029;-82
2022/01/03 07:54:11;;;;;;;19.77;4.40;;;;;;;8.63;88.65;101012.22;5005650;28;20036;-82
2022/01/03 07:56:36;;;;;;;20.67;4.53;;;;;;;8.65;88.22;101007.59;5005988;28;20033;-82
2022/01/03 07:59:02;;;;;;;19.25;4.55;;;;;;;8.68;88.21;101017.28;5022646;28;20121;-82
2022/01/03 08:01:27;;;;;;;24.38;4.45;;;;;;;8.70;87.77;101016.22;5008367;28;20033;-82
2022/01/03 08:03:52;;;;;;;25.13;4.68;;;;;;;8.74;88.16;101019.56;5007809;28;20092;-83
2022/01/03 08:06:20;;;;;;;23.73;4.68;;;;;;;8.74;87.65;100998.13;4999902;28;20021;-82
2022/01/03 08:08:45;;;;;;;20.98;4.53;;;;;;;8.74;87.80;100999.00;4995020;28;20074;-82
2022/01/03 08:11:10;;;;;;;21.63;4.68;;;;;;;8.77;87.24;101002.44;4999223;28;20481;-82
2022/01/03 08:13:36;;;;;;;15.75;4.20;;;;;;;8.74;86.91;101003.47;4998360;28;20117;-82
2022/01/03 08:16:01;;;;;;;14.95;3.67;;;;;;;8.76;87.28;101014.13;5016500;28;20052;-82
2022/01/03 08:18:26;;;;;;;28.58;4.97;;;;;;;8.76;86.57;101006.09;4997764;28;20034;-82
2022/01/03 08:20:53;;;;;;;22.08;4.40;;;;;;;8.76;87.01;101004.25;4994031;28;20496;-82
2022/01/03 08:23:19;;;;;;;26.13;5.28;;;;;;;8.77;87.09;101003.31;5020114;28;20040;-82
2022/01/03 08:25:44;;;;;;;19.30;4.22;;;;;;;8.79;86.69;101003.22;5009529;28;20017;-82
2022/01/03 08:28:10;;;;;;;14.40;3.95;;;;;;;8.81;86.75;101012.88;5027544;28;20105;-82
2022/01/03 08:30:36;;;;;;;19.70;4.13;;;;;;;8.83;86.35;101007.41;5022978;28;20484;-82
2022/01/03 08:33:02;;;;;;;21.20;4.28;;;;;;;8.87;86.12;101006.25;5031703;28;20088;-82
2022/01/03 08:35:27;;;;;;;22.95;4.68;;;;;;;8.90;86.35;100992.66;4999250;28;20037;-82
2022/01/03 08:37:54;;;;;;;26.67;4.68;;;;;;;8.90;86.17;100998.00;5009834;28;20105;-82
2022/01/03 08:40:19;;;;;;;20.25;4.68;;;;;;;8.90;86.02;100996.22;5015956;28;20035;-82
2022/01/03 08:42:46;;;;;;;19.42;4.22;;;;;;;8.94;86.13;100990.66;4977630;28;20026;-82
2022/01/03 08:45:11;;;;;;;14.80;3.60;;;;;;;8.93;86.20;100987.09;4989046;28;20231;-82
2022/01/03 08:47:37;;;;;;;20.52;3.60;;;;;;;8.92;86.09;100985.41;5016980;28;20025;-82
2022/01/03 08:50:04;;;;;;;20.23;3.97;;;;;;;8.94;85.93;101001.38;5010563;28;20030;-82
2022/01/03 08:52:30;;;;;;;28.33;5.05;;;;;;;8.97;86.20;101010.06;4993542;28;20021;-82
2022/01/03 08:54:56;;;;;;;22.55;4.72;;;;;;;8.98;85.99;101017.16;5002043;28;20022;-82
2022/01/03 08:57:21;;;;;;;20.38;4.32;;;;;;;8.98;85.76;101011.81;5011948;28;20033;-82
2022/01/03 08:59:48;;;;;;;18.35;4.28;;;;;;;9.00;85.56;101020.59;5014225;28;20482;-82
2022/01/03 09:02:14;;;;;;;20.33;4.18;;;;;;;9.02;85.88;101016.00;5004384;28;20079;-82
2022/01/03 09:04:40;;;;;;;23.25;4.85;;;;;;;9.07;85.69;101023.75;5024336;28;20506;-82
2022/01/03 09:07:05;;;;;;;23.33;4.30;;;;;;;9.13;85.16;101017.13;5007930;28;20080;-82
2022/01/03 09:09:32;;;;;;;19.17;4.05;;;;;;;9.14;85.59;101014.34;4989028;28;20533;-82
2022/01/03 09:11:57;;;;;;;24.95;4.45;;;;;;;9.22;85.23;101011.16;4989727;28;20523;-81
2022/01/03 09:14:22;;;;;;;15.68;4.28;;;;;;;9.29;85.10;101014.31;4987815;28;20026;-82
2022/01/03 09:16:48;;;;;;;22.52;4.70;;;;;;;9.36;84.50;101012.97;4984770;28;20168;-82
2022/01/03 09:19:13;;;;;;;25.55;5.28;;;;;;;9.42;84.70;101007.19;4997323;28;20037;-83
2022/01/03 09:21:38;;;;;;;20.20;4.45;;;;;;;9.42;83.91;101007.19;4985270;28;20038;-82
2022/01/03 09:24:19;;;;;;;22.27;4.15;;;;;;;9.43;83.50;101007.09;4999904;28;20137;-82
2022/01/03 09:29:29;;;;;;;28.45;5.40;;;;;;;9.50;83.44;101006.69;4994796;28;20048;-82
2022/01/03 09:31:54;;;;;;;18.90;5.03;;;;;;;9.51;83.36;100995.00;4989753;28;20121;-82
2022/01/03 09:34:20;;;;;;;24.17;4.30;;;;;;;9.51;83.47;100990.47;4990515;28;20062;-82
2022/01/03 09:36:45;;;;;;;22.13;3.88;;;;;;;9.50;83.42;100979.84;5001211;28;20026;-82
2022/01/03 09:39:10;;;;;;;20.02;4.25;;;;;;;9.51;83.29;100982.44;4996561;28;20025;-82
2022/01/03 09:41:41;;;;;;;20.40;4.63;;;;;;;9.51;83.29;100978.91;5000994;28;20136;-82
2022/01/03 09:44:11;;;;;;;21.15;4.55;;;;;;;9.50;82.71;100979.84;4988609;28;20084;-82
2022/01/03 09:46:39;;;;;;;24.27;4.82;;;;;;;9.53;82.80;100985.88;4992614;28;20339;-82
2022/01/03 09:49:07;;;;;;;21.30;4.00;;;;;;;9.53;82.65;100991.25;4995016;28;20490;-82
2022/01/03 09:51:33;;;;;;;18.55;5.40;;;;;;;9.56;82.83;100991.03;4997224;28;20057;-81
2022/01/03 09:54:16;;;;;;;26.13;4.63;;;;;;;9.61;83.60;100988.03;4997548;28;20054;-82
2022/01/03 09:56:42;;;;;;;24.35;4.82;;;;;;;9.58;82.99;100980.22;4997570;28;20025;-82
2022/01/03 09:59:08;;;;;;;24.23;4.93;;;;;;;9.59;82.86;100984.59;4994387;28;20616;-82
2022/01/03 10:01:34;;;;;;;21.50;4.50;;;;;;;9.58;83.19;100977.53;4993812;28;20045;-82
2022/01/03 10:04:00;;;;;;;23.25;4.40;;;;;;;9.57;82.40;100976.63;5005910;28;20025;-82
2022/01/03 10:06:27;;;;;;;26.77;4.95;;;;;;;9.54;82.70;100976.00;4998126;28;20728;-82
2022/01/03 10:08:53;;;;;;;20.40;4.45;;;;;;;9.53;82.92;100985.00;4994565;28;20053;-82
2022/01/03 10:11:20;;;;;;;20.25;4.13;;;;;;;9.54;83.25;100971.47;4992315;28;20037;-82
2022/01/03 10:13:45;;;;;;;22.38;4.93;;;;;;;9.58;83.38;100982.88;4989712;28;20058;-82
2022/01/03 10:16:11;;;;;;;21.55;5.03;;;;;;;9.60;82.99;100975.59;4995733;28;20171;-82
2022/01/03 10:18:37;;;;;;;21.30;5.25;;;;;;;9.67;82.77;100978.72;4995431;28;20030;-82
2022/01/03 10:21:04;;;;;;;26.63;5.28;;;;;;;9.71;82.31;100980.25;5002800;28;20034;-84
2022/01/03 10:23:30;;;;;;;22.83;4.57;;;;;;;9.76;82.42;100984.31;4994090;28;20030;-82
2022/01/03 10:26:14;;;;;;;22.77;4.55;;;;;;;9.82;83.08;100979.50;5006440;28;20034;-82
2022/01/03 10:28:39;;;;;;;24.60;5.40;;;;;;;9.84;81.75;100974.88;5002015;28;20038;-82
2022/01/03 10:31:20;;;;;;;27.80;4.95;;;;;;;9.87;82.51;100977.34;4994698;28;20687;-82
2022/01/03 10:33:47;;;;;;;26.45;5.03;;;;;;;9.85;81.60;100968.56;4996711;28;20087;-81
2022/01/03 10:36:30;;;;;;;26.55;4.95;;;;;;;9.86;81.47;100971.13;5006174;28;20049;-81
2022/01/03 10:38:57;;;;;;;22.65;5.00;;;;;;;9.84;81.84;100959.66;5000563;28;20045;-81
2022/01/03 10:41:24;;;;;;;22.98;4.53;;;;;;;9.85;81.59;100957.81;4990750;28;20026;-81
2022/01/03 10:43:56;;;;;;;23.63;5.78;;;;;;;9.88;81.46;100957.59;4990574;28;20030;-81
2022/01/03 10:46:29;;;;;;;20.58;4.90;;;;;;;9.92;81.29;100956.44;4999725;28;20029;-81
2022/01/03 10:49:15;;;;;;;23.60;5.03;;;;;;;10.01;81.67;100954.94;4993324;28;20041;-79
2022/01/03 10:51:41;;;;;;;34.38;5.28;;;;;;;10.01;81.25;100936.16;4983522;28;20026;-78
2022/01/03 10:54:12;;;;;;;19.02;4.20;;;;;;;10.02;80.90;100932.50;5000295;28;20437;-78
2022/01/03 10:56:42;;;;;;;19.60;4.13;;;;;;;10.02;81.29;100917.25;4991835;28;20518;-78
2022/01/03 10:59:18;;;;;;;20.23;4.60;;;;;;;10.05;80.78;100926.91;4987664;28;20022;-78
2022/01/03 11:01:46;;;;;;;18.77;5.03;;;;;;;10.07;80.92;100931.22;4990017;28;20462;-78
2022/01/03 11:04:25;;;;;;;22.10;4.72;;;;;;;10.10;81.17;100931.00;4999414;28;20030;-78
2022/01/03 11:13:18;;;;;;;25.63;5.28;;;;;;;10.19;80.93;100902.63;5005511;28;20040;-81
2022/01/03 11:15:51;;;;;;;24.38;4.88;;;;;;;10.28;80.67;100906.50;5003052;28;20056;-81
2022/01/03 11:18:27;;;;;;;21.42;5.03;;;;;;;10.32;80.26;100900.78;5007840;28;20041;-81
2022/01/03 11:21:11;;;;;;;22.38;5.45;;;;;;;10.34;80.53;100891.78;5004245;28;20025;-82
2022/01/03 11:23:38;;;;;;;19.92;4.40;;;;;;;10.30;79.45;100891.97;5005487;28;20084;-81
2022/01/03 11:26:06;;;;;;;24.85;5.03;;;;;;;10.31;79.85;100893.69;5011188;28;20033;-82
2022/01/03 11:28:31;;;;;;;23.08;4.78;;;;;;;10.38;79.95;100891.47;4994020;28;20417;-82
2022/01/03 11:30:59;;;;;;;23.98;4.40;;;;;;;10.41;78.71;100902.00;5019422;28;20037;-81
2022/01/03 11:33:26;;;;;;;20.13;5.00;;;;;;;10.39;78.68;100886.94;5006824;28;20029;-81
2022/01/03 11:35:51;;;;;;;21.23;4.20;;;;;;;10.34;78.84;100892.66;5016915;28;20435;-81
2022/01/03 11:38:20;;;;;;;17.52;4.40;;;;;;;10.29;79.67;100892.06;4997003;28;20127;-82
2022/01/03 11:40:46;;;;;;;19.52;4.82;;;;;;;10.24;79.11;100891.56;4997247;28;20453;-82